sensor_id;sensor_type;location;lat;lon;timestamp;P1;durP1;ratioP1;P2;durP2;ratioP2
21663;SDS011;10993;52.510;13.456;2023-03-07T00:00:21;4.20;;;2.53;;
21663;SDS011;10993;52.510;13.456;2023-03-07T00:05:21;8.33;;;3.73;;
21663;SDS011;10993;52.510;13.456;2023-03-07T00:10:23;11.00;;;3.83;;
21663;SDS011;10993;52.510;13.456;2023-03-07T00:15:24;10.13;;;3.90;;
21663;SDS011;10993;52.510;13.456;2023-03-07T00:20:24;6.40;;;3.10;;
21663;SDS011;10993;52.510;13.456;2023-03-07T00:25:26;6.87;;;3.13;;
21663;SDS011;10993;52.510;13.456;2023-03-07T00:30:26;7.23;;;2.70;;
21663;SDS011;10993;52.510;13.456;2023-03-07T00:35:27;7.90;;;3.67;;
21663;SDS011;10993;52.510;13.456;2023-03-07T00:40:29;8.93;;;3.17;;
21663;SDS011;10993;52.510;13.456;2023-03-07T00:45:29;6.83;;;3.43;;
21663;SDS011;10993;52.510;13.456;2023-03-07T00:50:29;8.43;;;3.80;;
21663;SDS011;10993;52.510;13.456;2023-03-07T00:55:31;8.17;;;3.00;;
21663;SDS011;10993;52.510;13.456;2023-03-07T01:00:31;8.57;;;3.73;;
21663;SDS011;10993;52.510;13.456;2023-03-07T01:05:32;11.17;;;3.80;;
21663;SDS011;10993;52.510;13.456;2023-03-07T01:10:39;11.03;;;4.77;;
21663;SDS011;10993;52.510;13.456;2023-03-07T01:15:39;9.23;;;4.10;;
21663;SDS011;10993;52.510;13.456;2023-03-07T01:20:40;12.53;;;4.83;;
21663;SDS011;10993;52.510;13.456;2023-03-07T01:25:42;9.97;;;4.50;;
21663;SDS011;10993;52.510;13.456;2023-03-07T01:30:42;13.70;;;5.03;;
21663;SDS011;10993;52.510;13.456;2023-03-07T01:35:43;8.47;;;3.93;;
21663;SDS011;10993;52.510;13.456;2023-03-07T01:40:45;9.73;;;4.63;;
21663;SDS011;10993;52.510;13.456;2023-03-07T01:51:34;12.57;;;5.07;;
21663;SDS011;10993;52.510;13.456;2023-03-07T01:56:38;9.10;;;4.50;;
21663;SDS011;10993;52.510;13.456;2023-03-07T02:01:39;10.93;;;5.30;;
21663;SDS011;10993;52.510;13.456;2023-03-07T02:06:40;9.37;;;4.47;;
21663;SDS011;10993;52.510;13.456;2023-03-07T02:11:42;19.63;;;7.50;;
21663;SDS011;10993;52.510;13.456;2023-03-07T02:16:43;10.77;;;5.00;;
21663;SDS011;10993;52.510;13.456;2023-03-07T02:21:45;13.63;;;6.83;;
21663;SDS011;10993;52.510;13.456;2023-03-07T02:26:55;11.53;;;5.63;;
21663;SDS011;10993;52.510;13.456;2023-03-07T02:31:56;16.80;;;7.37;;
21663;SDS011;10993;52.510;13.456;2023-03-07T02:37:00;18.57;;;7.20;;
21663;SDS011;10993;52.510;13.456;2023-03-07T02:42:06;17.77;;;8.53;;
21663;SDS011;10993;52.510;13.456;2023-03-07T02:47:09;15.27;;;7.10;;
21663;SDS011;10993;52.510;13.456;2023-03-07T02:52:10;20.13;;;8.00;;
21663;SDS011;10993;52.510;13.456;2023-03-07T02:57:11;19.77;;;8.20;;
21663;SDS011;10993;52.510;13.456;2023-03-07T03:02:13;18.43;;;8.53;;
21663;SDS011;10993;52.510;13.456;2023-03-07T03:07:13;20.07;;;7.87;;
21663;SDS011;10993;52.510;13.456;2023-03-07T03:12:15;17.93;;;8.27;;
21663;SDS011;10993;52.510;13.456;2023-03-07T03:17:15;18.87;;;7.60;;
21663;SDS011;10993;52.510;13.456;2023-03-07T03:22:16;17.80;;;7.60;;
21663;SDS011;10993;52.510;13.456;2023-03-07T03:27:18;19.17;;;9.00;;
21663;SDS011;10993;52.510;13.456;2023-03-07T03:32:18;22.70;;;8.07;;
21663;SDS011;10993;52.510;13.456;2023-03-07T03:37:19;17.67;;;8.13;;
21663;SDS011;10993;52.510;13.456;2023-03-07T03:42:23;19.70;;;8.63;;
21663;SDS011;10993;52.510;13.456;2023-03-07T03:47:24;26.13;;;10.20;;
21663;SDS011;10993;52.510;13.456;2023-03-07T03:52:24;21.50;;;9.07;;
21663;SDS011;10993;52.510;13.456;2023-03-07T03:57:26;19.23;;;8.83;;
21663;SDS011;10993;52.510;13.456;2023-03-07T04:02:26;18.27;;;8.43;;
21663;SDS011;10993;52.510;13.456;2023-03-07T04:07:29;21.23;;;9.40;;
21663;SDS011;10993;52.510;13.456;2023-03-07T04:12:31;24.37;;;10.23;;
21663;SDS011;10993;52.510;13.456;2023-03-07T04:17:31;18.33;;;8.07;;
21663;SDS011;10993;52.510;13.456;2023-03-07T04:22:31;18.27;;;7.63;;
21663;SDS011;10993;52.510;13.456;2023-03-07T04:27:33;21.67;;;9.10;;
21663;SDS011;10993;52.510;13.456;2023-03-07T04:32:34;23.77;;;9.50;;
21663;SDS011;10993;52.510;13.456;2023-03-07T04:37:35;19.50;;;8.10;;
21663;SDS011;10993;52.510;13.456;2023-03-07T04:42:37;20.27;;;8.57;;
21663;SDS011;10993;52.510;13.456;2023-03-07T04:47:37;20.00;;;8.77;;
21663;SDS011;10993;52.510;13.456;2023-03-07T04:52:38;23.50;;;9.53;;
21663;SDS011;10993;52.510;13.456;2023-03-07T04:57:40;23.23;;;9.57;;
21663;SDS011;10993;52.510;13.456;2023-03-07T05:02:40;23.27;;;9.10;;
21663;SDS011;10993;52.510;13.456;2023-03-07T05:07:41;21.60;;;7.43;;
21663;SDS011;10993;52.510;13.456;2023-03-07T05:12:42;18.43;;;7.10;;
21663;SDS011;10993;52.510;13.456;2023-03-07T05:17:43;19.23;;;8.17;;
21663;SDS011;10993;52.510;13.456;2023-03-07T05:22:43;16.77;;;6.83;;
21663;SDS011;10993;52.510;13.456;2023-03-07T05:27:45;19.10;;;8.73;;
21663;SDS011;10993;52.510;13.456;2023-03-07T05:32:45;19.20;;;8.40;;
21663;SDS011;10993;52.510;13.456;2023-03-07T05:37:45;15.27;;;7.23;;
21663;SDS011;10993;52.510;13.456;2023-03-07T05:42:47;16.33;;;7.47;;
21663;SDS011;10993;52.510;13.456;2023-03-07T05:47:47;18.17;;;8.13;;
21663;SDS011;10993;52.510;13.456;2023-03-07T05:52:48;17.67;;;8.20;;
21663;SDS011;10993;52.510;13.456;2023-03-07T05:57:50;21.33;;;8.73;;
21663;SDS011;10993;52.510;13.456;2023-03-07T06:02:50;16.73;;;7.33;;
21663;SDS011;10993;52.510;13.456;2023-03-07T06:07:50;19.00;;;7.77;;
21663;SDS011;10993;52.510;13.456;2023-03-07T06:12:52;18.97;;;7.83;;
21663;SDS011;10993;52.510;13.456;2023-03-07T06:17:53;19.33;;;7.30;;
21663;SDS011;10993;52.510;13.456;2023-03-07T06:22:54;17.73;;;7.40;;
21663;SDS011;10993;52.510;13.456;2023-03-07T06:27:55;19.77;;;7.87;;
21663;SDS011;10993;52.510;13.456;2023-03-07T06:33:00;20.00;;;7.27;;
21663;SDS011;10993;52.510;13.456;2023-03-07T06:38:00;16.07;;;6.90;;
21663;SDS011;10993;52.510;13.456;2023-03-07T06:43:02;17.77;;;7.07;;
21663;SDS011;10993;52.510;13.456;2023-03-07T06:48:03;14.23;;;6.20;;
21663;SDS011;10993;52.510;13.456;2023-03-07T06:53:03;18.10;;;7.93;;
21663;SDS011;10993;52.510;13.456;2023-03-07T06:58:05;15.70;;;7.10;;
21663;SDS011;10993;52.510;13.456;2023-03-07T07:03:06;15.43;;;6.80;;
21663;SDS011;10993;52.510;13.456;2023-03-07T07:08:06;20.17;;;8.47;;
21663;SDS011;10993;52.510;13.456;2023-03-07T07:13:08;19.97;;;8.07;;
21663;SDS011;10993;52.510;13.456;2023-03-07T07:18:11;17.10;;;7.67;;
21663;SDS011;10993;52.510;13.456;2023-03-07T07:23:12;19.93;;;7.23;;
21663;SDS011;10993;52.510;13.456;2023-03-07T07:28:14;18.00;;;6.97;;
21663;SDS011;10993;52.510;13.456;2023-03-07T07:33:15;16.47;;;7.53;;
21663;SDS011;10993;52.510;13.456;2023-03-07T07:38:15;21.23;;;8.57;;
21663;SDS011;10993;52.510;13.456;2023-03-07T07:43:17;16.97;;;7.83;;
21663;SDS011;10993;52.510;13.456;2023-03-07T07:48:17;15.60;;;7.60;;
21663;SDS011;10993;52.510;13.456;2023-03-07T07:53:18;21.13;;;8.00;;
21663;SDS011;10993;52.510;13.456;2023-03-07T07:58:20;16.13;;;7.50;;
21663;SDS011;10993;52.510;13.456;2023-03-07T08:03:20;17.57;;;7.07;;
21663;SDS011;10993;52.510;13.456;2023-03-07T08:08:20;16.70;;;7.27;;
21663;SDS011;10993;52.510;13.456;2023-03-07T08:13:22;14.13;;;6.23;;
21663;SDS011;10993;52.510;13.456;2023-03-07T08:18:22;14.87;;;6.47;;
21663;SDS011;10993;52.510;13.456;2023-03-07T08:23:23;15.63;;;7.17;;
21663;SDS011;10993;52.510;13.456;2023-03-07T08:28:25;21.40;;;7.30;;
21663;SDS011;10993;52.510;13.456;2023-03-07T08:33:25;16.77;;;6.40;;
21663;SDS011;10993;52.510;13.456;2023-03-07T08:38:25;16.90;;;6.87;;
21663;SDS011;10993;52.510;13.456;2023-03-07T08:43:28;14.20;;;6.40;;
21663;SDS011;10993;52.510;13.456;2023-03-07T08:48:29;17.50;;;7.20;;
21663;SDS011;10993;52.510;13.456;2023-03-07T08:53:29;17.87;;;7.00;;
21663;SDS011;10993;52.510;13.456;2023-03-07T08:58:31;13.03;;;6.17;;
21663;SDS011;10993;52.510;13.456;2023-03-07T09:03:31;13.33;;;6.20;;
21663;SDS011;10993;52.510;13.456;2023-03-07T09:08:33;14.90;;;6.57;;
21663;SDS011;10993;52.510;13.456;2023-03-07T09:13:34;10.40;;;5.10;;
21663;SDS011;10993;52.510;13.456;2023-03-07T09:18:35;12.73;;;5.00;;
21663;SDS011;10993;52.510;13.456;2023-03-07T09:23:35;13.33;;;5.20;;
21663;SDS011;10993;52.510;13.456;2023-03-07T09:28:37;11.13;;;4.93;;
21663;SDS011;10993;52.510;13.456;2023-03-07T09:33:39;10.40;;;5.13;;
21663;SDS011;10993;52.510;13.456;2023-03-07T09:38:40;11.80;;;5.33;;
21663;SDS011;10993;52.510;13.456;2023-03-07T09:43:42;10.37;;;4.67;;
21663;SDS011;10993;52.510;13.456;2023-03-07T09:48:52;10.23;;;4.67;;
21663;SDS011;10993;52.510;13.456;2023-03-07T09:54:05;9.77;;;4.67;;
21663;SDS011;10993;52.510;13.456;2023-03-07T09:59:12;12.03;;;4.40;;
21663;SDS011;10993;52.510;13.456;2023-03-07T10:04:22;9.40;;;4.40;;
21663;SDS011;10993;52.510;13.456;2023-03-07T10:09:32;10.40;;;4.53;;
21663;SDS011;10993;52.510;13.456;2023-03-07T10:14:37;8.40;;;3.67;;
21663;SDS011;10993;52.510;13.456;2023-03-07T10:19:49;9.53;;;3.93;;
21663;SDS011;10993;52.510;13.456;2023-03-07T10:24:55;6.27;;;3.07;;
21663;SDS011;10993;52.510;13.456;2023-03-07T10:30:12;9.27;;;3.57;;
21663;SDS011;10993;52.510;13.456;2023-03-07T10:35:16;6.85;;;2.72;;
21663;SDS011;10993;52.510;13.456;2023-03-07T10:40:23;8.23;;;3.10;;
21663;SDS011;10993;52.510;13.456;2023-03-07T10:45:28;5.50;;;2.17;;
21663;SDS011;10993;52.510;13.456;2023-03-07T10:50:32;4.57;;;2.23;;
21663;SDS011;10993;52.510;13.456;2023-03-07T10:55:37;4.00;;;1.70;;
21663;SDS011;10993;52.510;13.456;2023-03-07T11:00:40;2.73;;;1.40;;
21663;SDS011;10993;52.510;13.456;2023-03-07T11:05:44;3.60;;;1.63;;
21663;SDS011;10993;52.510;13.456;2023-03-07T11:10:46;3.97;;;1.60;;
21663;SDS011;10993;52.510;13.456;2023-03-07T11:15:48;3.43;;;1.40;;
21663;SDS011;10993;52.510;13.456;2023-03-07T11:20:49;4.07;;;1.93;;
21663;SDS011;10993;52.510;13.456;2023-03-07T11:25:50;6.60;;;1.80;;
21663;SDS011;10993;52.510;13.456;2023-03-07T11:30:54;4.37;;;2.10;;
21663;SDS011;10993;52.510;13.456;2023-03-07T11:36:04;3.27;;;1.47;;
21663;SDS011;10993;52.510;13.456;2023-03-07T11:41:08;4.10;;;1.80;;
21663;SDS011;10993;52.510;13.456;2023-03-07T11:46:16;3.83;;;1.20;;
21663;SDS011;10993;52.510;13.456;2023-03-07T11:51:28;4.30;;;1.40;;
21663;SDS011;10993;52.510;13.456;2023-03-07T11:56:39;3.37;;;1.10;;
21663;SDS011;10993;52.510;13.456;2023-03-07T12:01:49;4.57;;;1.90;;
21663;SDS011;10993;52.510;13.456;2023-03-07T12:06:56;8.97;;;3.00;;
21663;SDS011;10993;52.510;13.456;2023-03-07T12:12:17;4.53;;;1.20;;
21663;SDS011;10993;52.510;13.456;2023-03-07T12:17:32;2.33;;;1.10;;
21663;SDS011;10993;52.510;13.456;2023-03-07T12:22:42;4.90;;;1.13;;
21663;SDS011;10993;52.510;13.456;2023-03-07T12:27:58;4.03;;;1.00;;
21663;SDS011;10993;52.510;13.456;2023-03-07T12:33:05;7.50;;;2.40;;
21663;SDS011;10993;52.510;13.456;2023-03-07T12:38:11;2.63;;;0.70;;
21663;SDS011;10993;52.510;13.456;2023-03-07T12:43:18;1.70;;;0.70;;
21663;SDS011;10993;52.510;13.456;2023-03-07T12:48:28;1.40;;;0.60;;
21663;SDS011;10993;52.510;13.456;2023-03-07T12:53:38;1.93;;;0.90;;
21663;SDS011;10993;52.510;13.456;2023-03-07T12:58:46;5.07;;;0.80;;
21663;SDS011;10993;52.510;13.456;2023-03-07T13:03:51;2.90;;;1.03;;
21663;SDS011;10993;52.510;13.456;2023-03-07T13:08:56;2.10;;;0.90;;
21663;SDS011;10993;52.510;13.456;2023-03-07T13:13:58;3.23;;;1.20;;
21663;SDS011;10993;52.510;13.456;2023-03-07T13:24:35;4.20;;;1.20;;
21663;SDS011;10993;52.510;13.456;2023-03-07T13:35:03;2.47;;;1.17;;
21663;SDS011;10993;52.510;13.456;2023-03-07T13:40:20;1.10;;;0.70;;
21663;SDS011;10993;52.510;13.456;2023-03-07T13:45:45;2.83;;;1.20;;
21663;SDS011;10993;52.510;13.456;2023-03-07T13:51:01;2.37;;;1.03;;
21663;SDS011;10993;52.510;13.456;2023-03-07T13:56:09;2.20;;;1.20;;
21663;SDS011;10993;52.510;13.456;2023-03-07T14:01:25;2.70;;;0.90;;
21663;SDS011;10993;52.510;13.456;2023-03-07T14:06:30;2.50;;;0.93;;
21663;SDS011;10993;52.510;13.456;2023-03-07T14:11:38;1.23;;;0.60;;
21663;SDS011;10993;52.510;13.456;2023-03-07T14:16:47;3.27;;;0.90;;
21663;SDS011;10993;52.510;13.456;2023-03-07T14:22:00;1.80;;;0.90;;
21663;SDS011;10993;52.510;13.456;2023-03-07T14:27:09;1.83;;;0.93;;
21663;SDS011;10993;52.510;13.456;2023-03-07T14:32:17;7.03;;;1.90;;
21663;SDS011;10993;52.510;13.456;2023-03-07T14:37:21;3.10;;;1.37;;
21663;SDS011;10993;52.510;13.456;2023-03-07T14:42:26;2.37;;;1.20;;
21663;SDS011;10993;52.510;13.456;2023-03-07T14:47:34;4.17;;;1.43;;
21663;SDS011;10993;52.510;13.456;2023-03-07T14:52:46;2.33;;;1.17;;
21663;SDS011;10993;52.510;13.456;2023-03-07T14:57:52;2.17;;;1.10;;
21663;SDS011;10993;52.510;13.456;2023-03-07T15:02:54;2.40;;;1.10;;
21663;SDS011;10993;52.510;13.456;2023-03-07T15:07:56;5.37;;;2.00;;
21663;SDS011;10993;52.510;13.456;2023-03-07T15:12:58;2.67;;;1.00;;
21663;SDS011;10993;52.510;13.456;2023-03-07T15:18:03;1.60;;;0.90;;
21663;SDS011;10993;52.510;13.456;2023-03-07T15:23:06;2.53;;;1.13;;
21663;SDS011;10993;52.510;13.456;2023-03-07T15:28:14;3.13;;;1.20;;
21663;SDS011;10993;52.510;13.456;2023-03-07T15:33:20;4.00;;;1.70;;
21663;SDS011;10993;52.510;13.456;2023-03-07T15:38:22;2.43;;;1.10;;
21663;SDS011;10993;52.510;13.456;2023-03-07T15:43:26;4.33;;;1.20;;
21663;SDS011;10993;52.510;13.456;2023-03-07T15:48:30;3.70;;;1.40;;
21663;SDS011;10993;52.510;13.456;2023-03-07T15:53:36;3.17;;;1.40;;
21663;SDS011;10993;52.510;13.456;2023-03-07T15:58:41;7.47;;;2.80;;
21663;SDS011;10993;52.510;13.456;2023-03-07T16:03:46;4.53;;;1.70;;
21663;SDS011;10993;52.510;13.456;2023-03-07T16:08:48;4.17;;;1.50;;
21663;SDS011;10993;52.510;13.456;2023-03-07T16:13:50;5.63;;;2.10;;
21663;SDS011;10993;52.510;13.456;2023-03-07T16:18:50;5.10;;;1.77;;
21663;SDS011;10993;52.510;13.456;2023-03-07T16:23:52;2.43;;;1.00;;
21663;SDS011;10993;52.510;13.456;2023-03-07T16:28:53;3.27;;;1.40;;
21663;SDS011;10993;52.510;13.456;2023-03-07T16:33:54;6.53;;;2.43;;
21663;SDS011;10993;52.510;13.456;2023-03-07T16:38:55;2.20;;;1.30;;
21663;SDS011;10993;52.510;13.456;2023-03-07T16:43:56;4.37;;;1.90;;
21663;SDS011;10993;52.510;13.456;2023-03-07T16:48:57;2.47;;;1.40;;
21663;SDS011;10993;52.510;13.456;2023-03-07T16:53:58;1.43;;;0.70;;
21663;SDS011;10993;52.510;13.456;2023-03-07T16:59:03;3.37;;;1.77;;
21663;SDS011;10993;52.510;13.456;2023-03-07T17:04:04;2.90;;;1.27;;
21663;SDS011;10993;52.510;13.456;2023-03-07T17:09:05;4.40;;;1.60;;
21663;SDS011;10993;52.510;13.456;2023-03-07T17:14:09;6.97;;;1.37;;
21663;SDS011;10993;52.510;13.456;2023-03-07T17:19:15;2.93;;;1.30;;
21663;SDS011;10993;52.510;13.456;2023-03-07T17:24:22;3.13;;;1.40;;
21663;SDS011;10993;52.510;13.456;2023-03-07T17:29:25;2.20;;;1.10;;
21663;SDS011;10993;52.510;13.456;2023-03-07T17:34:29;6.77;;;2.10;;
21663;SDS011;10993;52.510;13.456;2023-03-07T17:39:31;3.37;;;1.50;;
21663;SDS011;10993;52.510;13.456;2023-03-07T17:44:34;3.90;;;1.43;;
21663;SDS011;10993;52.510;13.456;2023-03-07T17:49:36;3.40;;;1.50;;
21663;SDS011;10993;52.510;13.456;2023-03-07T17:54:37;6.27;;;1.70;;
21663;SDS011;10993;52.510;13.456;2023-03-07T17:59:39;5.20;;;1.47;;
21663;SDS011;10993;52.510;13.456;2023-03-07T18:04:39;3.03;;;1.67;;
21663;SDS011;10993;52.510;13.456;2023-03-07T18:09:41;2.30;;;1.20;;
21663;SDS011;10993;52.510;13.456;2023-03-07T18:14:43;3.70;;;1.40;;
21663;SDS011;10993;52.510;13.456;2023-03-07T18:19:43;4.17;;;1.70;;
21663;SDS011;10993;52.510;13.456;2023-03-07T18:24:43;6.97;;;1.73;;
21663;SDS011;10993;52.510;13.456;2023-03-07T18:29:45;4.77;;;1.70;;
21663;SDS011;10993;52.510;13.456;2023-03-07T18:34:45;3.60;;;1.60;;
21663;SDS011;10993;52.510;13.456;2023-03-07T18:39:46;4.97;;;1.57;;
21663;SDS011;10993;52.510;13.456;2023-03-07T18:44:48;6.13;;;1.80;;
21663;SDS011;10993;52.510;13.456;2023-03-07T18:49:48;4.17;;;1.73;;
21663;SDS011;10993;52.510;13.456;2023-03-07T18:54:50;5.30;;;1.80;;
21663;SDS011;10993;52.510;13.456;2023-03-07T18:59:51;3.93;;;1.43;;
21663;SDS011;10993;52.510;13.456;2023-03-07T19:04:52;5.07;;;2.00;;
21663;SDS011;10993;52.510;13.456;2023-03-07T19:09:53;4.47;;;1.73;;
21663;SDS011;10993;52.510;13.456;2023-03-07T19:14:54;3.60;;;1.53;;
21663;SDS011;10993;52.510;13.456;2023-03-07T19:19:55;5.87;;;1.70;;
21663;SDS011;10993;52.510;13.456;2023-03-07T19:24:58;3.23;;;1.40;;
21663;SDS011;10993;52.510;13.456;2023-03-07T19:29:59;4.07;;;1.70;;
21663;SDS011;10993;52.510;13.456;2023-03-07T19:35:00;4.30;;;1.80;;
21663;SDS011;10993;52.510;13.456;2023-03-07T19:40:00;4.83;;;2.07;;
21663;SDS011;10993;52.510;13.456;2023-03-07T19:45:03;5.33;;;1.70;;
21663;SDS011;10993;52.510;13.456;2023-03-07T19:50:04;6.57;;;2.77;;
21663;SDS011;10993;52.510;13.456;2023-03-07T19:55:05;3.87;;;2.23;;
21663;SDS011;10993;52.510;13.456;2023-03-07T20:00:09;4.60;;;2.40;;
21663;SDS011;10993;52.510;13.456;2023-03-07T20:05:10;6.37;;;2.60;;
21663;SDS011;10993;52.510;13.456;2023-03-07T20:10:10;4.00;;;2.10;;
21663;SDS011;10993;52.510;13.456;2023-03-07T20:15:12;5.13;;;2.33;;
21663;SDS011;10993;52.510;13.456;2023-03-07T20:20:13;5.13;;;2.20;;
21663;SDS011;10993;52.510;13.456;2023-03-07T20:25:13;5.63;;;3.10;;
21663;SDS011;10993;52.510;13.456;2023-03-07T20:30:15;8.07;;;2.90;;
21663;SDS011;10993;52.510;13.456;2023-03-07T20:35:16;8.17;;;3.03;;
21663;SDS011;10993;52.510;13.456;2023-03-07T20:40:18;7.50;;;2.10;;
21663;SDS011;10993;52.510;13.456;2023-03-07T20:45:20;6.30;;;2.80;;
21663;SDS011;10993;52.510;13.456;2023-03-07T20:50:20;4.47;;;2.23;;
21663;SDS011;10993;52.510;13.456;2023-03-07T20:55:20;6.77;;;3.50;;
21663;SDS011;10993;52.510;13.456;2023-03-07T21:00:22;6.33;;;3.13;;
21663;SDS011;10993;52.510;13.456;2023-03-07T21:05:23;6.53;;;2.93;;
21663;SDS011;10993;52.510;13.456;2023-03-07T21:10:24;6.17;;;2.80;;
21663;SDS011;10993;52.510;13.456;2023-03-07T21:15:25;6.63;;;3.33;;
21663;SDS011;10993;52.510;13.456;2023-03-07T21:20:26;8.27;;;3.70;;
21663;SDS011;10993;52.510;13.456;2023-03-07T21:25:26;6.30;;;3.13;;
21663;SDS011;10993;52.510;13.456;2023-03-07T21:30:28;7.13;;;3.30;;
21663;SDS011;10993;52.510;13.456;2023-03-07T21:35:28;7.43;;;3.00;;
21663;SDS011;10993;52.510;13.456;2023-03-07T21:40:29;7.63;;;3.83;;
21663;SDS011;10993;52.510;13.456;2023-03-07T21:45:31;8.97;;;2.80;;
21663;SDS011;10993;52.510;13.456;2023-03-07T21:50:32;6.60;;;3.47;;
21663;SDS011;10993;52.510;13.456;2023-03-07T21:55:33;6.40;;;2.80;;
21663;SDS011;10993;52.510;13.456;2023-03-07T22:00:35;7.67;;;3.17;;
21663;SDS011;10993;52.510;13.456;2023-03-07T22:05:36;9.23;;;2.73;;
21663;SDS011;10993;52.510;13.456;2023-03-07T22:10:36;5.53;;;2.00;;
21663;SDS011;10993;52.510;13.456;2023-03-07T22:15:38;5.97;;;2.50;;
21663;SDS011;10993;52.510;13.456;2023-03-07T22:20:39;6.17;;;2.30;;
21663;SDS011;10993;52.510;13.456;2023-03-07T22:25:40;4.17;;;2.10;;
21663;SDS011;10993;52.510;13.456;2023-03-07T22:30:41;3.63;;;1.93;;
21663;SDS011;10993;52.510;13.456;2023-03-07T22:35:42;7.13;;;1.90;;
21663;SDS011;10993;52.510;13.456;2023-03-07T22:40:42;4.13;;;1.80;;
21663;SDS011;10993;52.510;13.456;2023-03-07T22:45:46;6.47;;;2.27;;
21663;SDS011;10993;52.510;13.456;2023-03-07T22:50:47;5.33;;;1.87;;
21663;SDS011;10993;52.510;13.456;2023-03-07T22:55:48;4.57;;;1.83;;
21663;SDS011;10993;52.510;13.456;2023-03-07T23:00:50;5.43;;;1.60;;
21663;SDS011;10993;52.510;13.456;2023-03-07T23:05:50;4.07;;;1.67;;
21663;SDS011;10993;52.510;13.456;2023-03-07T23:10:51;4.27;;;1.70;;
21663;SDS011;10993;52.510;13.456;2023-03-07T23:16:01;4.40;;;2.10;;
21663;SDS011;10993;52.510;13.456;2023-03-07T23:21:03;9.23;;;1.90;;
21663;SDS011;10993;52.510;13.456;2023-03-07T23:26:04;5.20;;;1.50;;
21663;SDS011;10993;52.510;13.456;2023-03-07T23:31:13;5.13;;;1.50;;
21663;SDS011;10993;52.510;13.456;2023-03-07T23:36:14;8.67;;;3.33;;
21663;SDS011;10993;52.510;13.456;2023-03-07T23:41:16;7.10;;;2.30;;
21663;SDS011;10993;52.510;13.456;2023-03-07T23:46:18;3.73;;;1.63;;
21663;SDS011;10993;52.510;13.456;2023-03-07T23:51:19;5.10;;;1.60;;
21663;SDS011;10993;52.510;13.456;2023-03-07T23:56:20;6.83;;;1.70;;
